createdAt,value
2023-05-18T00:03:37.016Z,3.56
2023-05-18T00:08:41.856Z,3.44
2023-05-18T00:13:45.459Z,3.38
2023-05-18T00:18:48.808Z,3.19
2023-05-18T00:23:53.772Z,3.33
2023-05-18T00:28:57.277Z,3.11
2023-05-18T00:34:02.583Z,3.16
2023-05-18T00:39:09.099Z,3.00
2023-05-18T00:44:12.416Z,3.09
2023-05-18T00:49:15.856Z,3.03
2023-05-18T00:54:21.072Z,2.98
2023-05-18T00:59:24.409Z,2.76
2023-05-18T01:04:32.019Z,2.87
2023-05-18T01:09:37.079Z,2.96
2023-05-18T01:14:45.699Z,2.93
2023-05-18T01:20:08.189Z,2.82
2023-05-18T01:25:19.777Z,2.63
2023-05-18T01:30:25.337Z,2.71
2023-05-18T01:35:29.191Z,2.39
2023-05-18T01:40:37.629Z,2.64
2023-05-18T01:45:45.632Z,2.54
2023-05-18T01:50:50.372Z,2.52
2023-05-18T01:55:55.764Z,2.48
2023-05-18T02:01:00.931Z,2.36
2023-05-18T02:06:04.861Z,2.30
2023-05-18T02:11:08.352Z,2.29
2023-05-18T02:16:13.809Z,2.27
2023-05-18T02:21:17.360Z,2.13
2023-05-18T02:26:21.042Z,2.07
2023-05-18T02:31:31.113Z,2.03
2023-05-18T02:36:40.411Z,2.14
2023-05-18T02:41:44.096Z,2.00
2023-05-18T02:46:49.136Z,2.02
2023-05-18T02:51:52.484Z,1.98
2023-05-18T02:56:56.970Z,1.91
2023-05-18T03:02:14.537Z,1.87
2023-05-18T03:07:18.181Z,1.85
2023-05-18T03:12:21.825Z,1.81
2023-05-18T03:17:26.821Z,1.81
2023-05-18T03:22:30.605Z,1.75
2023-05-18T03:27:34.380Z,1.66
2023-05-18T03:32:41.700Z,1.73
2023-05-18T03:37:45.475Z,1.78
2023-05-18T03:42:48.898Z,1.84
2023-05-18T03:47:53.805Z,1.78
2023-05-18T03:52:57.363Z,1.98
2023-05-18T03:58:02.031Z,1.83
2023-05-18T04:03:07.149Z,2.05
2023-05-18T04:08:14.678Z,2.28
2023-05-18T04:13:18.226Z,2.38
2023-05-18T04:18:23.029Z,2.49
2023-05-18T04:23:26.806Z,2.59
2023-05-18T04:28:30.500Z,2.65
2023-05-18T04:33:35.228Z,2.84
2023-05-18T04:38:39.405Z,3.00
2023-05-18T04:43:42.894Z,3.26
2023-05-18T04:48:50.055Z,3.48
2023-05-18T04:53:53.625Z,3.64
2023-05-18T04:59:00.242Z,3.85
2023-05-18T05:04:07.358Z,4.33
2023-05-18T05:09:13.942Z,4.30
2023-05-18T05:14:17.344Z,4.77
2023-05-18T05:19:22.039Z,5.21
2023-05-18T05:24:25.360Z,5.60
2023-05-18T05:29:29.321Z,5.73
2023-05-18T05:34:35.149Z,5.93
2023-05-18T05:39:39.676Z,6.55
2023-05-18T05:44:43.964Z,6.85
2023-05-18T05:49:49.187Z,7.61
2023-05-18T05:54:54.342Z,7.72
2023-05-18T05:59:58.006Z,7.39
2023-05-18T06:05:03.884Z,8.44
2023-05-18T06:10:08.478Z,9.70
2023-05-18T06:15:12.861Z,10.83
2023-05-18T06:20:18.794Z,11.76
2023-05-18T06:25:22.597Z,12.80
2023-05-18T06:30:44.357Z,13.50
2023-05-18T06:36:01.192Z,13.99
2023-05-18T06:41:05.985Z,14.99
2023-05-18T06:46:10.123Z,14.30
2023-05-18T06:51:17.897Z,14.57
2023-05-18T06:56:23.378Z,13.99
2023-05-18T07:01:29.628Z,14.82
2023-05-18T07:06:37.710Z,14.05
2023-05-18T07:11:41.622Z,13.43
2023-05-18T07:16:47.378Z,13.41
2023-05-18T07:21:52.401Z,12.53
2023-05-18T07:26:55.824Z,13.06
2023-05-18T07:31:59.412Z,13.73
2023-05-18T07:37:05.213Z,12.78
2023-05-18T07:42:09.823Z,12.94
2023-05-18T07:47:13.353Z,13.89
2023-05-18T07:52:18.138Z,13.59
2023-05-18T07:57:21.437Z,13.11
2023-05-18T08:02:24.925Z,14.33
2023-05-18T08:07:32.974Z,13.44
2023-05-18T08:12:36.375Z,13.23
2023-05-18T08:17:40.074Z,14.04
2023-05-18T08:22:44.847Z,14.27
2023-05-18T08:27:48.119Z,13.85
2023-05-18T08:32:51.743Z,13.62
2023-05-18T08:37:56.764Z,13.80
2023-05-18T08:43:05.103Z,13.24
2023-05-18T08:48:09.489Z,13.99
2023-05-18T08:53:14.633Z,14.20
2023-05-18T08:58:21.620Z,15.49
2023-05-18T09:03:26.426Z,14.68
2023-05-18T09:08:33.289Z,14.11
2023-05-18T09:13:36.759Z,15.35
2023-05-18T09:18:40.279Z,14.45
2023-05-18T09:23:46.396Z,15.06
2023-05-18T09:28:54.406Z,14.23
2023-05-18T09:33:59.995Z,13.07
2023-05-18T09:39:09.509Z,13.53
2023-05-18T09:44:12.949Z,13.04
2023-05-18T09:49:22.967Z,13.40
2023-05-18T09:54:27.846Z,13.22
2023-05-18T09:59:31.538Z,13.42
2023-05-18T10:04:39.828Z,13.70
2023-05-18T10:09:45.909Z,14.40
2023-05-18T10:14:50.650Z,14.91
2023-05-18T10:19:56.057Z,15.70
2023-05-18T10:25:03.587Z,14.94
2023-05-18T10:30:09.721Z,14.14
2023-05-18T10:35:13.569Z,14.83
2023-05-18T10:40:19.071Z,14.19
2023-05-18T10:45:22.782Z,14.32
2023-05-18T10:50:27.131Z,14.90
2023-05-18T10:55:32.077Z,14.46
2023-05-18T11:00:36.844Z,14.32
2023-05-18T11:05:41.130Z,14.77
2023-05-18T11:10:47.428Z,14.42
2023-05-18T11:16:07.344Z,14.80
2023-05-18T11:21:36.746Z,14.21
2023-05-18T11:26:41.947Z,14.70
2023-05-18T11:31:45.472Z,14.56
2023-05-18T11:36:50.554Z,14.10
2023-05-18T11:42:02.181Z,14.54
2023-05-18T11:47:08.534Z,15.38
2023-05-18T11:52:17.638Z,15.79
2023-05-18T11:57:26.673Z,14.78
2023-05-18T12:02:33.882Z,14.42
2023-05-18T12:07:37.410Z,14.58
2023-05-18T12:12:42.535Z,15.16
2023-05-18T12:17:46.746Z,14.68
2023-05-18T12:22:52.672Z,15.89
2023-05-18T12:27:57.950Z,16.00
2023-05-18T12:33:01.645Z,15.56
2023-05-18T12:38:06.208Z,16.38
2023-05-18T12:43:10.983Z,15.92
2023-05-18T12:48:15.172Z,14.22
2023-05-18T12:53:19.619Z,16.01
2023-05-18T12:58:25.195Z,16.51
2023-05-18T13:03:35.141Z,17.06
2023-05-18T13:08:38.648Z,16.86
2023-05-18T13:13:58.916Z,16.46
2023-05-18T13:19:04.486Z,16.02
2023-05-18T13:24:08.185Z,15.24
2023-05-18T13:29:13.179Z,15.39
2023-05-18T13:34:16.575Z,16.67
2023-05-18T13:39:19.899Z,16.00
2023-05-18T13:44:24.478Z,16.13
2023-05-18T13:49:27.734Z,16.27
2023-05-18T13:54:30.957Z,16.57
2023-05-18T13:59:36.090Z,16.84
2023-05-18T14:04:39.708Z,15.78
2023-05-18T14:09:43.192Z,16.17
2023-05-18T14:14:47.913Z,16.28
2023-05-18T14:19:51.078Z,16.76
2023-05-18T14:24:54.816Z,15.96
2023-05-18T14:29:59.690Z,15.93
2023-05-18T14:35:03.313Z,16.20
2023-05-18T14:40:07.952Z,15.58
2023-05-18T14:45:13.187Z,16.15
2023-05-18T14:50:17.855Z,15.86
2023-05-18T14:55:21.064Z,15.34
2023-05-18T15:00:25.750Z,15.57
2023-05-18T15:05:29.431Z,14.85
2023-05-18T15:10:35.352Z,15.44
2023-05-18T15:15:40.110Z,15.36
2023-05-18T15:20:43.608Z,14.66
2023-05-18T15:25:46.895Z,14.66
2023-05-18T15:30:51.409Z,14.89
2023-05-18T15:35:54.852Z,14.59
2023-05-18T15:40:58.203Z,14.50
2023-05-18T15:46:02.879Z,14.48
2023-05-18T15:51:07.586Z,14.17
2023-05-18T15:56:10.919Z,14.03
2023-05-18T16:01:15.529Z,14.52
2023-05-18T16:06:19.158Z,14.32
2023-05-18T16:11:22.440Z,14.48
2023-05-18T16:16:27.081Z,14.42
2023-05-18T16:21:30.483Z,14.17
2023-05-18T16:26:34.963Z,14.13
2023-05-18T16:31:40.097Z,14.08
2023-05-18T16:36:43.496Z,13.76
2023-05-18T16:41:46.598Z,14.40
2023-05-18T16:46:51.884Z,14.00
2023-05-18T16:51:55.337Z,13.78
2023-05-18T16:56:58.745Z,13.81
2023-05-18T17:02:03.415Z,13.74
2023-05-18T17:07:06.975Z,13.82
2023-05-18T17:12:11.314Z,13.89
2023-05-18T17:17:15.886Z,13.64
2023-05-18T17:22:19.133Z,13.85
2023-05-18T17:27:22.790Z,13.72
2023-05-18T17:32:27.912Z,13.32
2023-05-18T17:37:31.375Z,12.90
2023-05-18T17:42:34.859Z,13.22
2023-05-18T17:47:41.590Z,13.21
2023-05-18T17:52:45.182Z,12.91
2023-05-18T17:57:48.397Z,12.96
2023-05-18T18:02:53.197Z,12.93
2023-05-18T18:07:57.608Z,13.02
2023-05-18T18:13:01.193Z,12.90
2023-05-18T18:18:06.475Z,12.53
2023-05-18T18:23:09.982Z,12.49
2023-05-18T18:28:15.368Z,12.52
2023-05-18T18:33:20.984Z,12.40
2023-05-18T18:38:26.963Z,11.96
2023-05-18T18:43:30.277Z,12.07
2023-05-18T18:48:34.953Z,11.88
2023-05-18T18:53:38.542Z,11.52
2023-05-18T18:58:41.787Z,11.58
2023-05-18T19:03:46.922Z,11.40
2023-05-18T19:08:52.156Z,11.40
2023-05-18T19:13:56.477Z,11.19
2023-05-18T19:19:08.591Z,10.80
2023-05-18T19:24:11.906Z,10.93
2023-05-18T19:29:15.249Z,10.48
2023-05-18T19:34:20.042Z,10.73
2023-05-18T19:39:24.221Z,10.46
2023-05-18T19:44:27.753Z,10.00
2023-05-18T19:49:32.585Z,10.08
2023-05-18T19:54:36.163Z,10.08
2023-05-18T19:59:39.730Z,9.80
2023-05-18T20:04:44.565Z,9.80
2023-05-18T20:09:48.108Z,9.75
2023-05-18T20:14:51.606Z,9.84
2023-05-18T20:19:56.430Z,9.57
2023-05-18T20:25:05.727Z,9.62
2023-05-18T20:30:10.183Z,9.66
2023-05-18T20:35:15.942Z,9.59
2023-05-18T20:40:19.331Z,9.46
2023-05-18T20:45:22.979Z,9.47
2023-05-18T20:50:27.784Z,8.99
2023-05-18T20:55:32.124Z,9.05
2023-05-18T21:00:36.043Z,9.24
2023-05-18T21:05:40.828Z,9.25
2023-05-18T21:10:44.255Z,9.16
2023-05-18T21:15:47.441Z,9.07
2023-05-18T21:20:53.099Z,9.10
2023-05-18T21:25:57.176Z,9.08
2023-05-18T21:31:00.488Z,9.09
2023-05-18T21:36:06.061Z,8.91
2023-05-18T21:41:09.381Z,8.70
2023-05-18T21:46:12.674Z,8.80
2023-05-18T21:51:17.888Z,8.78
2023-05-18T21:56:21.348Z,8.80
2023-05-18T22:01:25.563Z,8.80
2023-05-18T22:06:30.580Z,8.75
2023-05-18T22:11:34.030Z,8.56
2023-05-18T22:16:37.614Z,8.72
2023-05-18T22:21:42.901Z,8.62
2023-05-18T22:26:46.338Z,8.40
2023-05-18T22:31:49.714Z,8.07
2023-05-18T22:36:54.533Z,8.31
2023-05-18T22:41:57.920Z,8.33
2023-05-18T22:47:01.663Z,8.32
2023-05-18T22:52:08.262Z,8.37
2023-05-18T22:57:11.654Z,8.23
2023-05-18T23:02:15.147Z,8.09
2023-05-18T23:07:20.109Z,7.99
2023-05-18T23:12:23.501Z,7.84
2023-05-18T23:17:27.122Z,7.73
2023-05-18T23:22:32.002Z,7.88
2023-05-18T23:27:36.054Z,7.82
2023-05-18T23:32:40.245Z,7.60
2023-05-18T23:37:48.980Z,7.63
2023-05-18T23:42:53.006Z,7.41
2023-05-18T23:47:57.054Z,7.57
2023-05-18T23:53:04.501Z,7.58
2023-05-18T23:58:08.917Z,7.66
